sensor_id;sensor_type;location;lat;lon;timestamp;P1;durP1;ratioP1;P2;durP2;ratioP2
50126;SDS011;36024;47.974;16.398;2023-04-27T00:01:11;4.40;;;3.27;;
50126;SDS011;36024;47.974;16.398;2023-04-27T00:03:38;3.90;;;3.50;;
50126;SDS011;36024;47.974;16.398;2023-04-27T00:06:06;4.50;;;3.40;;
50126;SDS011;36024;47.974;16.398;2023-04-27T00:08:33;4.67;;;3.80;;
50126;SDS011;36024;47.974;16.398;2023-04-27T00:11:00;4.47;;;3.60;;
50126;SDS011;36024;47.974;16.398;2023-04-27T00:13:27;6.47;;;3.60;;
50126;SDS011;36024;47.974;16.398;2023-04-27T00:15:54;4.87;;;3.57;;
50126;SDS011;36024;47.974;16.398;2023-04-27T00:18:21;4.03;;;3.63;;
50126;SDS011;36024;47.974;16.398;2023-04-27T00:20:47;5.43;;;3.70;;
50126;SDS011;36024;47.974;16.398;2023-04-27T00:23:15;4.03;;;3.60;;
50126;SDS011;36024;47.974;16.398;2023-04-27T00:25:41;4.33;;;3.50;;
50126;SDS011;36024;47.974;16.398;2023-04-27T00:28:08;4.90;;;3.70;;
50126;SDS011;36024;47.974;16.398;2023-04-27T00:30:34;5.60;;;3.40;;
50126;SDS011;36024;47.974;16.398;2023-04-27T00:33:01;4.87;;;3.70;;
50126;SDS011;36024;47.974;16.398;2023-04-27T00:35:28;6.40;;;3.93;;
50126;SDS011;36024;47.974;16.398;2023-04-27T00:37:56;4.17;;;3.70;;
50126;SDS011;36024;47.974;16.398;2023-04-27T00:40:23;5.27;;;3.77;;
50126;SDS011;36024;47.974;16.398;2023-04-27T00:42:51;5.93;;;4.13;;
50126;SDS011;36024;47.974;16.398;2023-04-27T00:45:17;4.63;;;3.73;;
50126;SDS011;36024;47.974;16.398;2023-04-27T00:47:44;5.13;;;3.60;;
50126;SDS011;36024;47.974;16.398;2023-04-27T00:50:11;5.23;;;3.77;;
50126;SDS011;36024;47.974;16.398;2023-04-27T00:52:38;5.50;;;3.90;;
50126;SDS011;36024;47.974;16.398;2023-04-27T00:55:05;4.33;;;3.90;;
50126;SDS011;36024;47.974;16.398;2023-04-27T00:57:32;4.10;;;3.70;;
50126;SDS011;36024;47.974;16.398;2023-04-27T00:59:59;4.80;;;3.73;;
50126;SDS011;36024;47.974;16.398;2023-04-27T01:02:28;5.03;;;3.70;;
50126;SDS011;36024;47.974;16.398;2023-04-27T01:04:55;4.70;;;4.27;;
50126;SDS011;36024;47.974;16.398;2023-04-27T01:07:25;4.53;;;3.83;;
50126;SDS011;36024;47.974;16.398;2023-04-27T01:09:52;5.40;;;3.80;;
50126;SDS011;36024;47.974;16.398;2023-04-27T01:12:19;4.20;;;3.80;;
50126;SDS011;36024;47.974;16.398;2023-04-27T01:14:47;5.03;;;4.00;;
50126;SDS011;36024;47.974;16.398;2023-04-27T01:17:14;5.13;;;4.20;;
50126;SDS011;36024;47.974;16.398;2023-04-27T01:19:40;4.97;;;4.00;;
50126;SDS011;36024;47.974;16.398;2023-04-27T01:22:08;4.30;;;3.90;;
50126;SDS011;36024;47.974;16.398;2023-04-27T01:24:36;4.70;;;4.10;;
50126;SDS011;36024;47.974;16.398;2023-04-27T01:27:04;4.73;;;4.10;;
50126;SDS011;36024;47.974;16.398;2023-04-27T01:29:30;5.40;;;4.50;;
50126;SDS011;36024;47.974;16.398;2023-04-27T01:31:57;4.70;;;4.30;;
50126;SDS011;36024;47.974;16.398;2023-04-27T01:34:24;4.50;;;4.03;;
50126;SDS011;36024;47.974;16.398;2023-04-27T01:36:51;4.90;;;4.40;;
50126;SDS011;36024;47.974;16.398;2023-04-27T01:39:19;5.63;;;4.23;;
50126;SDS011;36024;47.974;16.398;2023-04-27T01:41:46;5.67;;;4.60;;
50126;SDS011;36024;47.974;16.398;2023-04-27T01:44:13;5.07;;;4.30;;
50126;SDS011;36024;47.974;16.398;2023-04-27T01:46:39;4.90;;;4.40;;
50126;SDS011;36024;47.974;16.398;2023-04-27T01:49:06;4.77;;;4.37;;
50126;SDS011;36024;47.974;16.398;2023-04-27T01:51:33;4.73;;;4.20;;
50126;SDS011;36024;47.974;16.398;2023-04-27T01:54:00;4.80;;;4.33;;
50126;SDS011;36024;47.974;16.398;2023-04-27T01:56:27;5.90;;;4.17;;
50126;SDS011;36024;47.974;16.398;2023-04-27T01:58:54;5.60;;;4.27;;
50126;SDS011;36024;47.974;16.398;2023-04-27T02:01:21;4.67;;;4.20;;
50126;SDS011;36024;47.974;16.398;2023-04-27T02:03:48;6.53;;;4.60;;
50126;SDS011;36024;47.974;16.398;2023-04-27T02:06:15;5.77;;;4.17;;
50126;SDS011;36024;47.974;16.398;2023-04-27T02:08:42;5.83;;;4.40;;
50126;SDS011;36024;47.974;16.398;2023-04-27T02:11:09;5.20;;;4.27;;
50126;SDS011;36024;47.974;16.398;2023-04-27T02:13:35;6.33;;;4.33;;
50126;SDS011;36024;47.974;16.398;2023-04-27T02:16:02;5.77;;;5.17;;
50126;SDS011;36024;47.974;16.398;2023-04-27T02:18:30;7.00;;;4.47;;
50126;SDS011;36024;47.974;16.398;2023-04-27T02:20:58;5.00;;;4.43;;
50126;SDS011;36024;47.974;16.398;2023-04-27T02:23:24;5.00;;;4.50;;
50126;SDS011;36024;47.974;16.398;2023-04-27T02:25:51;5.40;;;4.23;;
50126;SDS011;36024;47.974;16.398;2023-04-27T02:28:18;4.50;;;4.10;;
50126;SDS011;36024;47.974;16.398;2023-04-27T02:30:45;4.83;;;4.40;;
50126;SDS011;36024;47.974;16.398;2023-04-27T02:33:11;4.90;;;4.20;;
50126;SDS011;36024;47.974;16.398;2023-04-27T02:35:38;4.33;;;3.93;;
50126;SDS011;36024;47.974;16.398;2023-04-27T02:38:05;4.57;;;3.67;;
50126;SDS011;36024;47.974;16.398;2023-04-27T02:40:35;4.80;;;4.40;;
50126;SDS011;36024;47.974;16.398;2023-04-27T02:43:04;5.43;;;4.30;;
50126;SDS011;36024;47.974;16.398;2023-04-27T02:45:35;4.80;;;4.30;;
50126;SDS011;36024;47.974;16.398;2023-04-27T02:48:04;4.77;;;4.33;;
50126;SDS011;36024;47.974;16.398;2023-04-27T02:50:32;5.47;;;4.30;;
50126;SDS011;36024;47.974;16.398;2023-04-27T02:53:00;5.20;;;4.70;;
50126;SDS011;36024;47.974;16.398;2023-04-27T02:55:28;5.63;;;4.60;;
50126;SDS011;36024;47.974;16.398;2023-04-27T02:57:55;4.83;;;4.27;;
50126;SDS011;36024;47.974;16.398;2023-04-27T03:00:21;5.60;;;4.47;;
50126;SDS011;36024;47.974;16.398;2023-04-27T03:02:48;4.80;;;4.23;;
50126;SDS011;36024;47.974;16.398;2023-04-27T03:05:15;6.03;;;4.10;;
50126;SDS011;36024;47.974;16.398;2023-04-27T03:07:42;6.40;;;4.50;;
50126;SDS011;36024;47.974;16.398;2023-04-27T03:10:09;5.73;;;4.90;;
50126;SDS011;36024;47.974;16.398;2023-04-27T03:12:35;5.93;;;4.43;;
50126;SDS011;36024;47.974;16.398;2023-04-27T03:15:02;6.90;;;4.77;;
50126;SDS011;36024;47.974;16.398;2023-04-27T03:17:29;5.13;;;4.70;;
50126;SDS011;36024;47.974;16.398;2023-04-27T03:19:56;5.77;;;5.00;;
50126;SDS011;36024;47.974;16.398;2023-04-27T03:22:23;6.57;;;4.90;;
50126;SDS011;36024;47.974;16.398;2023-04-27T03:24:50;6.43;;;5.10;;
50126;SDS011;36024;47.974;16.398;2023-04-27T03:27:16;4.87;;;4.37;;
50126;SDS011;36024;47.974;16.398;2023-04-27T03:29:43;5.53;;;5.00;;
50126;SDS011;36024;47.974;16.398;2023-04-27T03:32:10;4.73;;;4.33;;
50126;SDS011;36024;47.974;16.398;2023-04-27T03:34:36;5.57;;;4.40;;
50126;SDS011;36024;47.974;16.398;2023-04-27T03:37:03;4.97;;;4.40;;
50126;SDS011;36024;47.974;16.398;2023-04-27T03:39:35;4.70;;;4.30;;
50126;SDS011;36024;47.974;16.398;2023-04-27T03:42:02;5.63;;;4.50;;
50126;SDS011;36024;47.974;16.398;2023-04-27T03:44:29;5.63;;;4.77;;
50126;SDS011;36024;47.974;16.398;2023-04-27T03:47:00;5.17;;;4.53;;
50126;SDS011;36024;47.974;16.398;2023-04-27T03:49:27;5.33;;;4.37;;
50126;SDS011;36024;47.974;16.398;2023-04-27T03:51:54;6.50;;;5.07;;
50126;SDS011;36024;47.974;16.398;2023-04-27T03:54:21;5.83;;;5.10;;
50126;SDS011;36024;47.974;16.398;2023-04-27T03:56:48;6.07;;;5.00;;
50126;SDS011;36024;47.974;16.398;2023-04-27T03:59:15;6.10;;;5.30;;
50126;SDS011;36024;47.974;16.398;2023-04-27T04:01:47;6.17;;;5.03;;
50126;SDS011;36024;47.974;16.398;2023-04-27T04:04:14;7.97;;;7.13;;
50126;SDS011;36024;47.974;16.398;2023-04-27T04:06:41;7.60;;;6.50;;
50126;SDS011;36024;47.974;16.398;2023-04-27T04:09:09;8.37;;;5.87;;
50126;SDS011;36024;47.974;16.398;2023-04-27T04:11:38;6.23;;;5.73;;
50126;SDS011;36024;47.974;16.398;2023-04-27T04:14:07;6.17;;;5.50;;
50126;SDS011;36024;47.974;16.398;2023-04-27T04:16:34;8.53;;;6.00;;
50126;SDS011;36024;47.974;16.398;2023-04-27T04:19:00;7.20;;;5.77;;
50126;SDS011;36024;47.974;16.398;2023-04-27T04:21:27;6.57;;;5.50;;
50126;SDS011;36024;47.974;16.398;2023-04-27T04:23:54;8.00;;;5.17;;
50126;SDS011;36024;47.974;16.398;2023-04-27T04:26:21;7.33;;;5.40;;
50126;SDS011;36024;47.974;16.398;2023-04-27T04:28:49;6.03;;;5.43;;
50126;SDS011;36024;47.974;16.398;2023-04-27T04:31:15;6.30;;;5.20;;
50126;SDS011;36024;47.974;16.398;2023-04-27T04:33:43;8.17;;;5.57;;
50126;SDS011;36024;47.974;16.398;2023-04-27T04:36:10;6.67;;;5.40;;
50126;SDS011;36024;47.974;16.398;2023-04-27T04:38:37;7.33;;;5.10;;
50126;SDS011;36024;47.974;16.398;2023-04-27T04:41:03;6.03;;;5.27;;
50126;SDS011;36024;47.974;16.398;2023-04-27T04:43:31;7.67;;;4.90;;
50126;SDS011;36024;47.974;16.398;2023-04-27T04:46:02;6.67;;;5.00;;
50126;SDS011;36024;47.974;16.398;2023-04-27T04:48:28;5.87;;;4.97;;
50126;SDS011;36024;47.974;16.398;2023-04-27T04:50:55;4.90;;;4.00;;
50126;SDS011;36024;47.974;16.398;2023-04-27T04:53:22;6.47;;;4.50;;
50126;SDS011;36024;47.974;16.398;2023-04-27T04:55:49;5.23;;;4.50;;
50126;SDS011;36024;47.974;16.398;2023-04-27T04:58:16;6.77;;;4.30;;
50126;SDS011;36024;47.974;16.398;2023-04-27T05:00:42;6.97;;;4.67;;
50126;SDS011;36024;47.974;16.398;2023-04-27T05:03:09;4.73;;;4.13;;
50126;SDS011;36024;47.974;16.398;2023-04-27T05:05:36;4.67;;;4.27;;
50126;SDS011;36024;47.974;16.398;2023-04-27T05:08:03;7.40;;;4.40;;
50126;SDS011;36024;47.974;16.398;2023-04-27T05:10:30;5.97;;;4.07;;
50126;SDS011;36024;47.974;16.398;2023-04-27T05:12:56;5.77;;;4.10;;
50126;SDS011;36024;47.974;16.398;2023-04-27T05:15:23;6.77;;;4.57;;
50126;SDS011;36024;47.974;16.398;2023-04-27T05:17:50;5.73;;;3.90;;
50126;SDS011;36024;47.974;16.398;2023-04-27T05:20:16;4.77;;;4.37;;
50126;SDS011;36024;47.974;16.398;2023-04-27T05:22:43;8.60;;;5.73;;
50126;SDS011;36024;47.974;16.398;2023-04-27T05:25:10;6.60;;;3.90;;
50126;SDS011;36024;47.974;16.398;2023-04-27T05:27:36;5.50;;;4.30;;
50126;SDS011;36024;47.974;16.398;2023-04-27T05:30:03;4.63;;;3.90;;
50126;SDS011;36024;47.974;16.398;2023-04-27T05:32:30;4.17;;;3.80;;
50126;SDS011;36024;47.974;16.398;2023-04-27T05:34:59;4.93;;;4.10;;
50126;SDS011;36024;47.974;16.398;2023-04-27T05:37:26;4.33;;;3.90;;
50126;SDS011;36024;47.974;16.398;2023-04-27T05:39:52;4.77;;;4.30;;
50126;SDS011;36024;47.974;16.398;2023-04-27T05:42:19;5.03;;;3.83;;
50126;SDS011;36024;47.974;16.398;2023-04-27T05:44:46;5.27;;;4.07;;
50126;SDS011;36024;47.974;16.398;2023-04-27T05:47:12;4.83;;;3.90;;
50126;SDS011;36024;47.974;16.398;2023-04-27T05:49:39;5.97;;;3.97;;
50126;SDS011;36024;47.974;16.398;2023-04-27T05:52:06;6.33;;;4.27;;
50126;SDS011;36024;47.974;16.398;2023-04-27T05:54:32;6.73;;;4.00;;
50126;SDS011;36024;47.974;16.398;2023-04-27T05:56:59;5.57;;;4.03;;
50126;SDS011;36024;47.974;16.398;2023-04-27T05:59:26;7.57;;;4.53;;
50126;SDS011;36024;47.974;16.398;2023-04-27T06:01:54;5.70;;;3.80;;
50126;SDS011;36024;47.974;16.398;2023-04-27T06:04:22;5.23;;;3.47;;
50126;SDS011;36024;47.974;16.398;2023-04-27T06:06:49;4.90;;;3.57;;
50126;SDS011;36024;47.974;16.398;2023-04-27T06:09:16;4.73;;;4.03;;
50126;SDS011;36024;47.974;16.398;2023-04-27T06:11:42;4.57;;;3.73;;
50126;SDS011;36024;47.974;16.398;2023-04-27T06:14:10;5.10;;;3.40;;
50126;SDS011;36024;47.974;16.398;2023-04-27T06:16:36;4.83;;;3.63;;
50126;SDS011;36024;47.974;16.398;2023-04-27T06:19:03;3.80;;;3.40;;
50126;SDS011;36024;47.974;16.398;2023-04-27T06:21:31;4.90;;;4.00;;
50126;SDS011;36024;47.974;16.398;2023-04-27T06:23:59;8.13;;;3.93;;
50126;SDS011;36024;47.974;16.398;2023-04-27T06:26:26;5.67;;;4.00;;
50126;SDS011;36024;47.974;16.398;2023-04-27T06:28:53;4.53;;;3.87;;
50126;SDS011;36024;47.974;16.398;2023-04-27T06:31:21;5.10;;;3.20;;
50126;SDS011;36024;47.974;16.398;2023-04-27T06:33:48;5.53;;;3.60;;
50126;SDS011;36024;47.974;16.398;2023-04-27T06:36:14;5.87;;;3.60;;
50126;SDS011;36024;47.974;16.398;2023-04-27T06:38:42;5.87;;;3.30;;
50126;SDS011;36024;47.974;16.398;2023-04-27T06:41:09;6.13;;;3.33;;
50126;SDS011;36024;47.974;16.398;2023-04-27T06:43:36;3.90;;;3.03;;
50126;SDS011;36024;47.974;16.398;2023-04-27T06:46:04;4.33;;;2.80;;
50126;SDS011;36024;47.974;16.398;2023-04-27T06:48:31;3.77;;;2.67;;
50126;SDS011;36024;47.974;16.398;2023-04-27T06:50:58;4.33;;;2.63;;
50126;SDS011;36024;47.974;16.398;2023-04-27T06:53:25;4.57;;;2.60;;
50126;SDS011;36024;47.974;16.398;2023-04-27T06:55:52;4.27;;;3.10;;
50126;SDS011;36024;47.974;16.398;2023-04-27T06:58:18;3.97;;;2.70;;
50126;SDS011;36024;47.974;16.398;2023-04-27T07:00:45;3.80;;;3.10;;
50126;SDS011;36024;47.974;16.398;2023-04-27T07:03:12;4.73;;;3.30;;
50126;SDS011;36024;47.974;16.398;2023-04-27T07:05:40;4.37;;;3.33;;
50126;SDS011;36024;47.974;16.398;2023-04-27T07:08:06;4.63;;;3.03;;
50126;SDS011;36024;47.974;16.398;2023-04-27T07:10:34;3.40;;;3.07;;
50126;SDS011;36024;47.974;16.398;2023-04-27T07:13:01;5.10;;;3.40;;
50126;SDS011;36024;47.974;16.398;2023-04-27T07:15:29;7.63;;;3.83;;
50126;SDS011;36024;47.974;16.398;2023-04-27T07:17:56;5.83;;;3.33;;
50126;SDS011;36024;47.974;16.398;2023-04-27T07:20:23;4.00;;;3.50;;
50126;SDS011;36024;47.974;16.398;2023-04-27T07:22:49;4.70;;;3.20;;
50126;SDS011;36024;47.974;16.398;2023-04-27T07:25:16;3.73;;;3.40;;
50126;SDS011;36024;47.974;16.398;2023-04-27T07:27:43;4.40;;;3.43;;
50126;SDS011;36024;47.974;16.398;2023-04-27T07:30:10;5.20;;;3.90;;
50126;SDS011;36024;47.974;16.398;2023-04-27T07:32:39;4.23;;;3.83;;
50126;SDS011;36024;47.974;16.398;2023-04-27T07:35:07;5.83;;;3.80;;
50126;SDS011;36024;47.974;16.398;2023-04-27T07:37:37;4.60;;;3.50;;
50126;SDS011;36024;47.974;16.398;2023-04-27T07:40:04;6.17;;;3.43;;
50126;SDS011;36024;47.974;16.398;2023-04-27T07:42:43;3.93;;;3.63;;
50126;SDS011;36024;47.974;16.398;2023-04-27T07:45:11;3.67;;;3.00;;
50126;SDS011;36024;47.974;16.398;2023-04-27T07:47:39;4.63;;;3.83;;
50126;SDS011;36024;47.974;16.398;2023-04-27T07:50:06;4.73;;;3.00;;
50126;SDS011;36024;47.974;16.398;2023-04-27T07:52:33;3.73;;;3.00;;
50126;SDS011;36024;47.974;16.398;2023-04-27T07:55:00;5.17;;;2.90;;
50126;SDS011;36024;47.974;16.398;2023-04-27T07:57:27;3.00;;;2.70;;
50126;SDS011;36024;47.974;16.398;2023-04-27T07:59:53;5.47;;;2.77;;
50126;SDS011;36024;47.974;16.398;2023-04-27T08:02:20;3.63;;;2.47;;
50126;SDS011;36024;47.974;16.398;2023-04-27T08:04:48;3.57;;;2.80;;
50126;SDS011;36024;47.974;16.398;2023-04-27T08:07:15;3.27;;;2.60;;
50126;SDS011;36024;47.974;16.398;2023-04-27T08:09:43;3.87;;;2.90;;
50126;SDS011;36024;47.974;16.398;2023-04-27T08:12:09;2.93;;;2.47;;
50126;SDS011;36024;47.974;16.398;2023-04-27T08:14:36;3.37;;;2.70;;
50126;SDS011;36024;47.974;16.398;2023-04-27T08:17:03;2.73;;;2.47;;
50126;SDS011;36024;47.974;16.398;2023-04-27T08:19:30;5.50;;;3.10;;
50126;SDS011;36024;47.974;16.398;2023-04-27T08:21:56;4.40;;;2.50;;
50126;SDS011;36024;47.974;16.398;2023-04-27T08:24:23;4.10;;;2.27;;
50126;SDS011;36024;47.974;16.398;2023-04-27T08:26:50;4.70;;;2.50;;
50126;SDS011;36024;47.974;16.398;2023-04-27T08:29:16;2.80;;;2.40;;
50126;SDS011;36024;47.974;16.398;2023-04-27T08:31:54;3.87;;;2.50;;
50126;SDS011;36024;47.974;16.398;2023-04-27T08:34:23;2.97;;;2.40;;
50126;SDS011;36024;47.974;16.398;2023-04-27T08:36:49;4.00;;;2.37;;
50126;SDS011;36024;47.974;16.398;2023-04-27T08:39:16;3.30;;;2.27;;
50126;SDS011;36024;47.974;16.398;2023-04-27T08:41:43;4.77;;;2.43;;
50126;SDS011;36024;47.974;16.398;2023-04-27T08:44:10;3.57;;;2.40;;
50126;SDS011;36024;47.974;16.398;2023-04-27T08:46:37;4.47;;;2.30;;
50126;SDS011;36024;47.974;16.398;2023-04-27T08:49:04;4.17;;;3.00;;
50126;SDS011;36024;47.974;16.398;2023-04-27T08:51:33;3.37;;;2.60;;
50126;SDS011;36024;47.974;16.398;2023-04-27T08:54:00;2.77;;;2.53;;
50126;SDS011;36024;47.974;16.398;2023-04-27T08:56:28;3.13;;;2.70;;
50126;SDS011;36024;47.974;16.398;2023-04-27T08:58:56;5.37;;;2.90;;
50126;SDS011;36024;47.974;16.398;2023-04-27T09:01:24;5.00;;;2.90;;
50126;SDS011;36024;47.974;16.398;2023-04-27T09:03:56;3.90;;;3.10;;
50126;SDS011;36024;47.974;16.398;2023-04-27T09:06:28;5.40;;;3.00;;
50126;SDS011;36024;47.974;16.398;2023-04-27T09:08:58;4.53;;;3.03;;
50126;SDS011;36024;47.974;16.398;2023-04-27T09:13:57;4.93;;;3.23;;
50126;SDS011;36024;47.974;16.398;2023-04-27T09:16:25;3.43;;;2.93;;
50126;SDS011;36024;47.974;16.398;2023-04-27T09:18:55;6.57;;;3.10;;
50126;SDS011;36024;47.974;16.398;2023-04-27T09:21:23;4.00;;;2.87;;
50126;SDS011;36024;47.974;16.398;2023-04-27T09:23:50;3.40;;;3.07;;
50126;SDS011;36024;47.974;16.398;2023-04-27T09:26:21;4.13;;;3.10;;
50126;SDS011;36024;47.974;16.398;2023-04-27T09:28:49;4.40;;;3.00;;
50126;SDS011;36024;47.974;16.398;2023-04-27T09:31:17;5.07;;;2.93;;
50126;SDS011;36024;47.974;16.398;2023-04-27T09:33:44;6.83;;;3.03;;
50126;SDS011;36024;47.974;16.398;2023-04-27T09:36:12;4.87;;;3.10;;
50126;SDS011;36024;47.974;16.398;2023-04-27T09:38:39;4.07;;;3.00;;
50126;SDS011;36024;47.974;16.398;2023-04-27T09:41:06;4.10;;;3.30;;
50126;SDS011;36024;47.974;16.398;2023-04-27T09:43:33;4.90;;;3.17;;
50126;SDS011;36024;47.974;16.398;2023-04-27T09:46:00;5.03;;;3.30;;
50126;SDS011;36024;47.974;16.398;2023-04-27T09:48:29;3.83;;;2.90;;
50126;SDS011;36024;47.974;16.398;2023-04-27T09:50:56;7.47;;;3.40;;
50126;SDS011;36024;47.974;16.398;2023-04-27T09:53:39;3.80;;;3.47;;
50126;SDS011;36024;47.974;16.398;2023-04-27T10:07:08;5.07;;;3.10;;
50126;SDS011;36024;47.974;16.398;2023-04-27T10:09:48;3.73;;;3.27;;
50126;SDS011;36024;47.974;16.398;2023-04-27T10:14:47;5.90;;;3.20;;
50126;SDS011;36024;47.974;16.398;2023-04-27T10:17:14;6.33;;;3.17;;
50126;SDS011;36024;47.974;16.398;2023-04-27T10:19:51;4.37;;;2.80;;
50126;SDS011;36024;47.974;16.398;2023-04-27T10:22:23;3.03;;;2.73;;
50126;SDS011;36024;47.974;16.398;2023-04-27T10:24:51;4.67;;;3.53;;
50126;SDS011;36024;47.974;16.398;2023-04-27T10:27:18;6.50;;;3.40;;
50126;SDS011;36024;47.974;16.398;2023-04-27T10:29:47;5.23;;;3.20;;
50126;SDS011;36024;47.974;16.398;2023-04-27T10:32:23;6.93;;;3.10;;
50126;SDS011;36024;47.974;16.398;2023-04-27T10:34:51;4.63;;;3.57;;
50126;SDS011;36024;47.974;16.398;2023-04-27T10:37:36;5.40;;;3.50;;
50126;SDS011;36024;47.974;16.398;2023-04-27T10:40:06;3.60;;;3.00;;
50126;SDS011;36024;47.974;16.398;2023-04-27T10:42:33;5.10;;;3.13;;
50126;SDS011;36024;47.974;16.398;2023-04-27T10:45:01;4.53;;;3.10;;
50126;SDS011;36024;47.974;16.398;2023-04-27T10:47:35;3.77;;;3.33;;
50126;SDS011;36024;47.974;16.398;2023-04-27T10:50:04;6.17;;;3.60;;
50126;SDS011;36024;47.974;16.398;2023-04-27T10:52:31;5.27;;;3.50;;
50126;SDS011;36024;47.974;16.398;2023-04-27T10:55:03;4.40;;;3.50;;
50126;SDS011;36024;47.974;16.398;2023-04-27T10:58:11;3.20;;;2.90;;
50126;SDS011;36024;47.974;16.398;2023-04-27T11:00:35;4.10;;;3.43;;
50126;SDS011;36024;47.974;16.398;2023-04-27T11:03:23;5.17;;;3.20;;
50126;SDS011;36024;47.974;16.398;2023-04-27T11:06:00;5.07;;;3.27;;
50126;SDS011;36024;47.974;16.398;2023-04-27T11:08:31;5.13;;;3.27;;
50126;SDS011;36024;47.974;16.398;2023-04-27T11:11:02;4.43;;;3.30;;
50126;SDS011;36024;47.974;16.398;2023-04-27T11:13:30;4.47;;;3.50;;
50126;SDS011;36024;47.974;16.398;2023-04-27T11:15:59;5.37;;;3.30;;
50126;SDS011;36024;47.974;16.398;2023-04-27T11:18:26;4.23;;;3.10;;
50126;SDS011;36024;47.974;16.398;2023-04-27T11:21:06;5.13;;;3.20;;
50126;SDS011;36024;47.974;16.398;2023-04-27T11:23:34;6.27;;;3.10;;
50126;SDS011;36024;47.974;16.398;2023-04-27T11:26:12;4.10;;;3.13;;
50126;SDS011;36024;47.974;16.398;2023-04-27T11:28:41;5.00;;;3.43;;
50126;SDS011;36024;47.974;16.398;2023-04-27T11:31:08;4.47;;;3.17;;
50126;SDS011;36024;47.974;16.398;2023-04-27T11:33:35;4.43;;;3.20;;
50126;SDS011;36024;47.974;16.398;2023-04-27T11:36:02;3.83;;;3.13;;
50126;SDS011;36024;47.974;16.398;2023-04-27T11:38:32;5.33;;;3.17;;
50126;SDS011;36024;47.974;16.398;2023-04-27T11:41:03;4.87;;;3.10;;
50126;SDS011;36024;47.974;16.398;2023-04-27T11:43:31;3.63;;;2.90;;
50126;SDS011;36024;47.974;16.398;2023-04-27T11:46:04;5.40;;;2.97;;
50126;SDS011;36024;47.974;16.398;2023-04-27T11:48:36;4.37;;;2.90;;
50126;SDS011;36024;47.974;16.398;2023-04-27T11:51:03;6.33;;;2.83;;
50126;SDS011;36024;47.974;16.398;2023-04-27T11:53:32;4.63;;;2.87;;
50126;SDS011;36024;47.974;16.398;2023-04-27T11:56:00;4.07;;;2.97;;
50126;SDS011;36024;47.974;16.398;2023-04-27T11:58:34;3.93;;;2.87;;
50126;SDS011;36024;47.974;16.398;2023-04-27T12:01:05;3.47;;;3.00;;
50126;SDS011;36024;47.974;16.398;2023-04-27T12:03:32;4.33;;;3.53;;
50126;SDS011;36024;47.974;16.398;2023-04-27T12:06:00;2.70;;;2.50;;
50126;SDS011;36024;47.974;16.398;2023-04-27T12:08:30;3.63;;;2.80;;
50126;SDS011;36024;47.974;16.398;2023-04-27T12:10:56;5.53;;;3.03;;
50126;SDS011;36024;47.974;16.398;2023-04-27T12:13:23;5.27;;;3.00;;
50126;SDS011;36024;47.974;16.398;2023-04-27T12:15:50;3.07;;;2.53;;
50126;SDS011;36024;47.974;16.398;2023-04-27T12:18:17;4.13;;;2.90;;
50126;SDS011;36024;47.974;16.398;2023-04-27T12:20:44;5.67;;;3.13;;
50126;SDS011;36024;47.974;16.398;2023-04-27T12:23:11;4.83;;;3.07;;
50126;SDS011;36024;47.974;16.398;2023-04-27T12:25:38;5.00;;;2.90;;
50126;SDS011;36024;47.974;16.398;2023-04-27T12:28:06;3.83;;;2.90;;
50126;SDS011;36024;47.974;16.398;2023-04-27T12:30:33;3.03;;;2.60;;
50126;SDS011;36024;47.974;16.398;2023-04-27T12:33:00;4.37;;;3.30;;
50126;SDS011;36024;47.974;16.398;2023-04-27T12:35:27;4.07;;;3.10;;
50126;SDS011;36024;47.974;16.398;2023-04-27T12:37:57;4.00;;;2.77;;
50126;SDS011;36024;47.974;16.398;2023-04-27T12:40:24;4.43;;;3.00;;
50126;SDS011;36024;47.974;16.398;2023-04-27T12:42:50;4.17;;;2.67;;
50126;SDS011;36024;47.974;16.398;2023-04-27T12:45:17;4.23;;;2.80;;
50126;SDS011;36024;47.974;16.398;2023-04-27T12:47:44;4.53;;;3.17;;
50126;SDS011;36024;47.974;16.398;2023-04-27T12:50:27;5.10;;;2.80;;
50126;SDS011;36024;47.974;16.398;2023-04-27T12:52:54;4.00;;;2.90;;
50126;SDS011;36024;47.974;16.398;2023-04-27T12:55:20;3.07;;;2.67;;
50126;SDS011;36024;47.974;16.398;2023-04-27T12:57:58;4.93;;;3.33;;
50126;SDS011;36024;47.974;16.398;2023-04-27T13:00:25;4.63;;;2.97;;
50126;SDS011;36024;47.974;16.398;2023-04-27T13:02:52;4.40;;;3.10;;
50126;SDS011;36024;47.974;16.398;2023-04-27T13:05:19;5.87;;;2.80;;
50126;SDS011;36024;47.974;16.398;2023-04-27T13:07:47;3.67;;;3.07;;
50126;SDS011;36024;47.974;16.398;2023-04-27T13:10:14;4.73;;;3.00;;
50126;SDS011;36024;47.974;16.398;2023-04-27T13:12:41;6.30;;;2.50;;
50126;SDS011;36024;47.974;16.398;2023-04-27T13:15:08;3.93;;;2.60;;
50126;SDS011;36024;47.974;16.398;2023-04-27T13:17:35;5.77;;;2.97;;
50126;SDS011;36024;47.974;16.398;2023-04-27T13:20:02;5.13;;;3.37;;
50126;SDS011;36024;47.974;16.398;2023-04-27T13:22:29;4.43;;;2.87;;
50126;SDS011;36024;47.974;16.398;2023-04-27T13:24:56;3.50;;;2.80;;
50126;SDS011;36024;47.974;16.398;2023-04-27T13:27:23;5.60;;;3.17;;
50126;SDS011;36024;47.974;16.398;2023-04-27T13:29:53;5.70;;;3.20;;
50126;SDS011;36024;47.974;16.398;2023-04-27T13:32:20;5.60;;;3.10;;
50126;SDS011;36024;47.974;16.398;2023-04-27T13:34:47;4.80;;;3.10;;
50126;SDS011;36024;47.974;16.398;2023-04-27T13:37:14;3.90;;;3.03;;
50126;SDS011;36024;47.974;16.398;2023-04-27T13:39:41;4.80;;;3.50;;
50126;SDS011;36024;47.974;16.398;2023-04-27T13:42:08;4.40;;;2.70;;
50126;SDS011;36024;47.974;16.398;2023-04-27T13:44:35;5.57;;;2.87;;
50126;SDS011;36024;47.974;16.398;2023-04-27T13:47:01;3.13;;;2.50;;
50126;SDS011;36024;47.974;16.398;2023-04-27T13:49:28;5.93;;;2.77;;
50126;SDS011;36024;47.974;16.398;2023-04-27T13:51:55;3.60;;;2.80;;
50126;SDS011;36024;47.974;16.398;2023-04-27T13:54:22;3.87;;;2.90;;
50126;SDS011;36024;47.974;16.398;2023-04-27T13:56:48;5.43;;;3.00;;
50126;SDS011;36024;47.974;16.398;2023-04-27T13:59:15;5.20;;;3.20;;
50126;SDS011;36024;47.974;16.398;2023-04-27T14:01:42;3.43;;;3.00;;
50126;SDS011;36024;47.974;16.398;2023-04-27T14:04:09;4.63;;;3.07;;
50126;SDS011;36024;47.974;16.398;2023-04-27T14:06:36;3.60;;;3.13;;
50126;SDS011;36024;47.974;16.398;2023-04-27T14:09:03;4.07;;;3.40;;
50126;SDS011;36024;47.974;16.398;2023-04-27T14:11:30;5.60;;;3.67;;
50126;SDS011;36024;47.974;16.398;2023-04-27T14:14:07;4.47;;;3.30;;
50126;SDS011;36024;47.974;16.398;2023-04-27T14:16:34;3.77;;;2.80;;
50126;SDS011;36024;47.974;16.398;2023-04-27T14:19:01;3.60;;;2.80;;
50126;SDS011;36024;47.974;16.398;2023-04-27T14:21:27;4.53;;;3.30;;
50126;SDS011;36024;47.974;16.398;2023-04-27T14:23:54;6.00;;;2.90;;
50126;SDS011;36024;47.974;16.398;2023-04-27T14:26:21;5.77;;;3.20;;
50126;SDS011;36024;47.974;16.398;2023-04-27T14:28:48;6.23;;;3.43;;
50126;SDS011;36024;47.974;16.398;2023-04-27T14:31:14;4.20;;;3.20;;
50126;SDS011;36024;47.974;16.398;2023-04-27T14:33:41;5.43;;;3.60;;
50126;SDS011;36024;47.974;16.398;2023-04-27T14:36:08;7.10;;;3.30;;
50126;SDS011;36024;47.974;16.398;2023-04-27T14:38:34;4.00;;;3.47;;
50126;SDS011;36024;47.974;16.398;2023-04-27T14:41:01;3.47;;;2.80;;
50126;SDS011;36024;47.974;16.398;2023-04-27T14:43:30;3.87;;;3.20;;
50126;SDS011;36024;47.974;16.398;2023-04-27T14:45:57;4.43;;;3.20;;
50126;SDS011;36024;47.974;16.398;2023-04-27T14:48:44;4.20;;;2.87;;
50126;SDS011;36024;47.974;16.398;2023-04-27T14:51:14;4.50;;;3.20;;
50126;SDS011;36024;47.974;16.398;2023-04-27T14:53:42;7.23;;;3.27;;